sensor_id;sensor_type;location;lat;lon;timestamp;pressure;altitude;pressure_sealevel;temperature;humidity
12213;BME280;6169;44.158;22.788;2022-12-18T00:04:27;102139.94;;;6.42;54.64
12213;BME280;6169;44.158;22.788;2022-12-18T00:09:30;102139.91;;;6.26;55.51
12213;BME280;6169;44.158;22.788;2022-12-18T00:14:33;102133.22;;;5.87;55.96
12213;BME280;6169;44.158;22.788;2022-12-18T00:19:35;102144.31;;;6.35;56.02
12213;BME280;6169;44.158;22.788;2022-12-18T00:24:38;102161.19;;;6.37;55.88
12213;BME280;6169;44.158;22.788;2022-12-18T00:29:41;102161.91;;;5.97;57.54
12213;BME280;6169;44.158;22.788;2022-12-18T00:34:43;102167.88;;;6.25;56.96
12213;BME280;6169;44.158;22.788;2022-12-18T00:39:48;102180.03;;;6.29;56.51
12213;BME280;6169;44.158;22.788;2022-12-18T00:44:50;102189.53;;;6.58;56.00
12213;BME280;6169;44.158;22.788;2022-12-18T00:49:52;102181.59;;;6.40;55.99
12213;BME280;6169;44.158;22.788;2022-12-18T00:54:56;102177.50;;;6.27;56.85
12213;BME280;6169;44.158;22.788;2022-12-18T00:59:58;102185.94;;;6.32;56.53
12213;BME280;6169;44.158;22.788;2022-12-18T01:05:00;102174.34;;;6.40;57.29
12213;BME280;6169;44.158;22.788;2022-12-18T01:10:06;102161.84;;;6.64;55.56
12213;BME280;6169;44.158;22.788;2022-12-18T01:15:09;102161.38;;;6.60;56.51
12213;BME280;6169;44.158;22.788;2022-12-18T01:20:12;102149.72;;;6.76;55.85
12213;BME280;6169;44.158;22.788;2022-12-18T01:25:17;102165.94;;;6.84;55.47
12213;BME280;6169;44.158;22.788;2022-12-18T01:30:19;102182.94;;;6.68;55.09
12213;BME280;6169;44.158;22.788;2022-12-18T01:35:21;102189.53;;;6.74;53.31
12213;BME280;6169;44.158;22.788;2022-12-18T01:40:25;102190.22;;;6.76;53.25
12213;BME280;6169;44.158;22.788;2022-12-18T01:45:28;102193.03;;;6.50;53.52
12213;BME280;6169;44.158;22.788;2022-12-18T01:50:33;102233.34;;;6.51;53.45
12213;BME280;6169;44.158;22.788;2022-12-18T01:55:40;102243.00;;;7.03;52.52
12213;BME280;6169;44.158;22.788;2022-12-18T02:00:44;102235.00;;;6.44;53.66
12213;BME280;6169;44.158;22.788;2022-12-18T02:05:49;102246.22;;;6.74;52.78
12213;BME280;6169;44.158;22.788;2022-12-18T02:11:06;102249.91;;;6.65;53.36
12213;BME280;6169;44.158;22.788;2022-12-18T02:16:16;102261.69;;;6.47;53.07
12213;BME280;6169;44.158;22.788;2022-12-18T02:21:28;102257.03;;;6.23;52.82
12213;BME280;6169;44.158;22.788;2022-12-18T02:26:37;102269.94;;;6.46;52.10
12213;BME280;6169;44.158;22.788;2022-12-18T02:31:47;102269.88;;;5.95;52.09
12213;BME280;6169;44.158;22.788;2022-12-18T02:36:54;102269.84;;;5.87;51.50
12213;BME280;6169;44.158;22.788;2022-12-18T02:41:59;102278.38;;;5.74;51.51
12213;BME280;6169;44.158;22.788;2022-12-18T02:47:10;102297.38;;;5.73;49.84
12213;BME280;6169;44.158;22.788;2022-12-18T02:52:18;102279.94;;;5.59;50.90
12213;BME280;6169;44.158;22.788;2022-12-18T02:57:32;102286.81;;;5.53;50.91
12213;BME280;6169;44.158;22.788;2022-12-18T03:02:39;102275.19;;;5.27;51.04
12213;BME280;6169;44.158;22.788;2022-12-18T03:07:50;102292.28;;;5.96;50.48
12213;BME280;6169;44.158;22.788;2022-12-18T03:13:00;102284.75;;;5.73;50.52
12213;BME280;6169;44.158;22.788;2022-12-18T03:18:08;102288.59;;;5.18;52.05
12213;BME280;6169;44.158;22.788;2022-12-18T03:23:16;102292.63;;;5.40;51.68
12213;BME280;6169;44.158;22.788;2022-12-18T03:28:22;102294.63;;;5.64;51.45
12213;BME280;6169;44.158;22.788;2022-12-18T03:33:27;102309.75;;;5.39;52.28
12213;BME280;6169;44.158;22.788;2022-12-18T03:38:30;102315.44;;;5.54;51.47
12213;BME280;6169;44.158;22.788;2022-12-18T03:43:42;102319.34;;;5.60;52.00
12213;BME280;6169;44.158;22.788;2022-12-18T03:48:52;102340.38;;;6.08;51.12
12213;BME280;6169;44.158;22.788;2022-12-18T03:53:59;102355.13;;;5.96;51.30
12213;BME280;6169;44.158;22.788;2022-12-18T03:59:04;102359.41;;;6.07;51.33
12213;BME280;6169;44.158;22.788;2022-12-18T04:04:08;102355.06;;;5.88;52.06
12213;BME280;6169;44.158;22.788;2022-12-18T04:09:12;102356.22;;;5.59;52.82
12213;BME280;6169;44.158;22.788;2022-12-18T04:14:16;102365.81;;;5.62;52.26
12213;BME280;6169;44.158;22.788;2022-12-18T04:19:18;102367.50;;;5.81;51.83
12213;BME280;6169;44.158;22.788;2022-12-18T04:24:21;102352.59;;;5.51;52.89
12213;BME280;6169;44.158;22.788;2022-12-18T04:29:24;102362.03;;;5.73;52.16
12213;BME280;6169;44.158;22.788;2022-12-18T04:34:26;102351.88;;;5.40;52.51
12213;BME280;6169;44.158;22.788;2022-12-18T04:39:29;102372.63;;;5.92;51.37
12213;BME280;6169;44.158;22.788;2022-12-18T04:44:32;102372.03;;;5.80;51.44
12213;BME280;6169;44.158;22.788;2022-12-18T04:49:35;102380.38;;;5.51;52.49
12213;BME280;6169;44.158;22.788;2022-12-18T04:54:37;102392.13;;;6.12;51.02
12213;BME280;6169;44.158;22.788;2022-12-18T04:59:41;102399.47;;;5.40;51.83
12213;BME280;6169;44.158;22.788;2022-12-18T05:04:43;102422.19;;;5.99;50.65
12213;BME280;6169;44.158;22.788;2022-12-18T05:09:45;102413.75;;;5.76;51.42
12213;BME280;6169;44.158;22.788;2022-12-18T05:14:48;102422.41;;;6.06;50.53
12213;BME280;6169;44.158;22.788;2022-12-18T05:19:51;102435.00;;;5.97;50.91
12213;BME280;6169;44.158;22.788;2022-12-18T05:24:53;102434.88;;;5.45;51.69
12213;BME280;6169;44.158;22.788;2022-12-18T05:29:56;102450.50;;;5.41;51.88
12213;BME280;6169;44.158;22.788;2022-12-18T05:34:58;102449.41;;;5.70;50.87
12213;BME280;6169;44.158;22.788;2022-12-18T05:40:01;102460.06;;;5.72;50.90
12213;BME280;6169;44.158;22.788;2022-12-18T05:45:06;102453.88;;;5.61;51.43
12213;BME280;6169;44.158;22.788;2022-12-18T05:50:08;102453.66;;;5.73;50.17
12213;BME280;6169;44.158;22.788;2022-12-18T05:55:11;102457.38;;;5.72;50.59
12213;BME280;6169;44.158;22.788;2022-12-18T06:00:16;102456.75;;;5.78;49.19
12213;BME280;6169;44.158;22.788;2022-12-18T06:05:18;102462.84;;;6.06;49.26
12213;BME280;6169;44.158;22.788;2022-12-18T06:10:20;102486.09;;;6.25;49.01
12213;BME280;6169;44.158;22.788;2022-12-18T06:15:24;102479.38;;;6.55;48.04
12213;BME280;6169;44.158;22.788;2022-12-18T06:20:26;102489.28;;;6.46;47.90
12213;BME280;6169;44.158;22.788;2022-12-18T06:25:28;102487.91;;;6.42;48.37
12213;BME280;6169;44.158;22.788;2022-12-18T06:30:32;102496.88;;;6.25;49.14
12213;BME280;6169;44.158;22.788;2022-12-18T06:35:34;102500.53;;;5.98;50.50
12213;BME280;6169;44.158;22.788;2022-12-18T06:40:37;102488.72;;;5.99;49.78
12213;BME280;6169;44.158;22.788;2022-12-18T06:45:41;102516.91;;;6.04;49.41
12213;BME280;6169;44.158;22.788;2022-12-18T06:50:43;102524.69;;;6.07;49.28
12213;BME280;6169;44.158;22.788;2022-12-18T06:55:45;102534.81;;;6.05;48.74
12213;BME280;6169;44.158;22.788;2022-12-18T07:00:49;102548.66;;;6.28;47.11
12213;BME280;6169;44.158;22.788;2022-12-18T07:05:52;102551.34;;;6.10;47.00
12213;BME280;6169;44.158;22.788;2022-12-18T07:10:54;102551.34;;;5.75;46.81
12213;BME280;6169;44.158;22.788;2022-12-18T07:16:05;102566.69;;;5.92;46.20
12213;BME280;6169;44.158;22.788;2022-12-18T07:21:09;102570.59;;;6.16;46.11
12213;BME280;6169;44.158;22.788;2022-12-18T07:26:13;102570.41;;;5.91;45.76
12213;BME280;6169;44.158;22.788;2022-12-18T07:31:19;102584.63;;;6.01;45.61
12213;BME280;6169;44.158;22.788;2022-12-18T07:36:21;102602.66;;;6.54;44.71
12213;BME280;6169;44.158;22.788;2022-12-18T07:41:24;102615.03;;;6.91;44.01
12213;BME280;6169;44.158;22.788;2022-12-18T07:46:27;102617.94;;;6.98;44.13
12213;BME280;6169;44.158;22.788;2022-12-18T07:51:29;102632.63;;;6.95;44.03
12213;BME280;6169;44.158;22.788;2022-12-18T07:56:32;102627.50;;;6.84;44.23
12213;BME280;6169;44.158;22.788;2022-12-18T08:01:35;102629.44;;;6.74;44.76
12213;BME280;6169;44.158;22.788;2022-12-18T08:06:38;102640.50;;;7.15;43.66
12213;BME280;6169;44.158;22.788;2022-12-18T08:11:40;102643.38;;;6.43;45.33
12213;BME280;6169;44.158;22.788;2022-12-18T08:16:43;102645.44;;;6.31;44.33
12213;BME280;6169;44.158;22.788;2022-12-18T08:21:46;102649.94;;;6.13;44.96
12213;BME280;6169;44.158;22.788;2022-12-18T08:26:48;102653.69;;;6.30;44.35
12213;BME280;6169;44.158;22.788;2022-12-18T08:31:52;102660.94;;;6.47;44.29
12213;BME280;6169;44.158;22.788;2022-12-18T08:36:54;102672.25;;;6.69;44.17
12213;BME280;6169;44.158;22.788;2022-12-18T08:41:56;102664.47;;;6.66;43.91
12213;BME280;6169;44.158;22.788;2022-12-18T08:47:17;102654.38;;;6.68;44.19
12213;BME280;6169;44.158;22.788;2022-12-18T08:52:19;102659.06;;;6.66;43.45
12213;BME280;6169;44.158;22.788;2022-12-18T08:57:22;102658.81;;;6.23;43.62
12213;BME280;6169;44.158;22.788;2022-12-18T09:02:25;102673.69;;;5.82;44.38
12213;BME280;6169;44.158;22.788;2022-12-18T09:07:28;102655.22;;;6.32;43.49
12213;BME280;6169;44.158;22.788;2022-12-18T09:12:30;102651.91;;;6.57;43.21
12213;BME280;6169;44.158;22.788;2022-12-18T09:17:33;102650.13;;;7.17;43.75
12213;BME280;6169;44.158;22.788;2022-12-18T09:22:35;102638.50;;;6.65;43.82
12213;BME280;6169;44.158;22.788;2022-12-18T09:27:38;102630.88;;;5.79;45.42
12213;BME280;6169;44.158;22.788;2022-12-18T09:32:41;102608.22;;;6.35;44.92
12213;BME280;6169;44.158;22.788;2022-12-18T09:37:44;102606.50;;;6.52;44.23
12213;BME280;6169;44.158;22.788;2022-12-18T09:42:55;102607.00;;;6.47;43.54
12213;BME280;6169;44.158;22.788;2022-12-18T09:48:01;102597.19;;;6.46;43.85
12213;BME280;6169;44.158;22.788;2022-12-18T09:53:06;102606.63;;;6.94;42.30
12213;BME280;6169;44.158;22.788;2022-12-18T09:58:19;102603.56;;;6.89;42.12
12213;BME280;6169;44.158;22.788;2022-12-18T10:03:24;102588.53;;;6.61;42.99
12213;BME280;6169;44.158;22.788;2022-12-18T10:08:35;102587.44;;;7.06;43.23
12213;BME280;6169;44.158;22.788;2022-12-18T10:13:42;102596.66;;;6.95;41.89
12213;BME280;6169;44.158;22.788;2022-12-18T10:19:03;102611.31;;;6.84;41.55
12213;BME280;6169;44.158;22.788;2022-12-18T10:24:16;102597.84;;;6.92;41.89
12213;BME280;6169;44.158;22.788;2022-12-18T10:29:21;102620.69;;;7.06;41.81
12213;BME280;6169;44.158;22.788;2022-12-18T10:34:25;102634.06;;;6.82;41.31
12213;BME280;6169;44.158;22.788;2022-12-18T10:39:28;102639.88;;;6.95;41.30
12213;BME280;6169;44.158;22.788;2022-12-18T10:44:30;102643.88;;;6.65;41.42
12213;BME280;6169;44.158;22.788;2022-12-18T10:49:35;102656.47;;;7.69;40.89
12213;BME280;6169;44.158;22.788;2022-12-18T10:54:38;102651.63;;;6.86;40.24
12213;BME280;6169;44.158;22.788;2022-12-18T10:59:51;102638.19;;;6.94;40.60
12213;BME280;6169;44.158;22.788;2022-12-18T11:04:55;102649.25;;;7.43;40.72
12213;BME280;6169;44.158;22.788;2022-12-18T11:10:04;102656.69;;;7.07;40.25
12213;BME280;6169;44.158;22.788;2022-12-18T11:15:15;102647.66;;;7.58;41.11
12213;BME280;6169;44.158;22.788;2022-12-18T11:20:29;102657.09;;;7.88;39.42
12213;BME280;6169;44.158;22.788;2022-12-18T11:25:32;102681.84;;;8.26;40.52
12213;BME280;6169;44.158;22.788;2022-12-18T11:30:36;102686.84;;;7.28;40.53
12213;BME280;6169;44.158;22.788;2022-12-18T11:35:44;102679.09;;;7.67;40.40
12213;BME280;6169;44.158;22.788;2022-12-18T11:40:54;102673.38;;;8.21;40.10
12213;BME280;6169;44.158;22.788;2022-12-18T11:46:00;102680.91;;;7.59;40.38
12213;BME280;6169;44.158;22.788;2022-12-18T11:51:11;102691.91;;;7.92;39.64
12213;BME280;6169;44.158;22.788;2022-12-18T11:56:28;102688.22;;;8.01;39.49
12213;BME280;6169;44.158;22.788;2022-12-18T12:01:39;102681.97;;;8.08;40.35
12213;BME280;6169;44.158;22.788;2022-12-18T12:06:54;102674.25;;;8.87;39.53
12213;BME280;6169;44.158;22.788;2022-12-18T12:12:10;102691.31;;;8.22;39.91
12213;BME280;6169;44.158;22.788;2022-12-18T12:17:21;102705.53;;;8.41;40.01
12213;BME280;6169;44.158;22.788;2022-12-18T12:22:27;102707.00;;;8.19;40.20
12213;BME280;6169;44.158;22.788;2022-12-18T12:27:39;102713.44;;;7.75;39.93
12213;BME280;6169;44.158;22.788;2022-12-18T12:33:04;102715.88;;;7.52;40.20
12213;BME280;6169;44.158;22.788;2022-12-18T12:38:13;102715.22;;;7.93;40.31
12213;BME280;6169;44.158;22.788;2022-12-18T12:43:28;102701.59;;;7.76;40.71
12213;BME280;6169;44.158;22.788;2022-12-18T12:48:41;102716.63;;;8.13;39.60
12213;BME280;6169;44.158;22.788;2022-12-18T12:53:46;102734.09;;;7.84;40.46
12213;BME280;6169;44.158;22.788;2022-12-18T12:58:56;102739.06;;;7.63;40.98
12213;BME280;6169;44.158;22.788;2022-12-18T13:04:14;102753.22;;;7.31;41.03
12213;BME280;6169;44.158;22.788;2022-12-18T13:09:22;102747.03;;;7.38;41.11
12213;BME280;6169;44.158;22.788;2022-12-18T13:14:28;102745.09;;;7.31;41.23
12213;BME280;6169;44.158;22.788;2022-12-18T13:19:30;102738.28;;;7.18;42.06
12213;BME280;6169;44.158;22.788;2022-12-18T13:24:34;102761.22;;;7.66;41.15
12213;BME280;6169;44.158;22.788;2022-12-18T13:29:45;102758.88;;;7.45;42.06
12213;BME280;6169;44.158;22.788;2022-12-18T13:34:48;102765.03;;;7.30;42.00
12213;BME280;6169;44.158;22.788;2022-12-18T13:39:51;102789.75;;;6.63;43.05
12213;BME280;6169;44.158;22.788;2022-12-18T13:44:53;102782.84;;;6.79;42.49
12213;BME280;6169;44.158;22.788;2022-12-18T13:49:56;102791.88;;;7.31;41.51
12213;BME280;6169;44.158;22.788;2022-12-18T13:55:02;102792.06;;;7.12;41.88
12213;BME280;6169;44.158;22.788;2022-12-18T14:00:24;102807.50;;;7.02;42.11
12213;BME280;6169;44.158;22.788;2022-12-18T14:05:28;102802.09;;;6.66;43.25
12213;BME280;6169;44.158;22.788;2022-12-18T14:10:33;102803.88;;;6.29;43.33
12213;BME280;6169;44.158;22.788;2022-12-18T14:15:38;102820.72;;;6.41;42.88
12213;BME280;6169;44.158;22.788;2022-12-18T14:20:43;102816.75;;;6.36;44.00
12213;BME280;6169;44.158;22.788;2022-12-18T14:25:47;102825.63;;;6.28;43.36
12213;BME280;6169;44.158;22.788;2022-12-18T14:30:49;102837.97;;;5.83;44.24
12213;BME280;6169;44.158;22.788;2022-12-18T14:35:54;102847.50;;;5.78;43.98
12213;BME280;6169;44.158;22.788;2022-12-18T14:41:02;102849.84;;;6.00;43.65
12213;BME280;6169;44.158;22.788;2022-12-18T14:46:06;102857.38;;;5.87;44.49
12213;BME280;6169;44.158;22.788;2022-12-18T14:51:28;102860.25;;;6.23;43.78
12213;BME280;6169;44.158;22.788;2022-12-18T14:56:34;102881.41;;;5.51;44.62
12213;BME280;6169;44.158;22.788;2022-12-18T15:01:38;102877.56;;;5.83;44.09
12213;BME280;6169;44.158;22.788;2022-12-18T15:06:46;102900.13;;;5.62;43.33
12213;BME280;6169;44.158;22.788;2022-12-18T15:11:55;102893.03;;;5.03;44.94
12213;BME280;6169;44.158;22.788;2022-12-18T15:16:59;102905.94;;;5.29;44.59
12213;BME280;6169;44.158;22.788;2022-12-18T15:22:02;102849.13;;;4.93;44.56
12213;BME280;6169;44.158;22.788;2022-12-18T15:27:23;102915.25;;;4.76;46.61
12213;BME280;6169;44.158;22.788;2022-12-18T15:32:26;102917.41;;;5.02;45.90
12213;BME280;6169;44.158;22.788;2022-12-18T15:37:28;102934.13;;;5.15;45.90
12213;BME280;6169;44.158;22.788;2022-12-18T15:42:32;102934.56;;;4.50;46.70
12213;BME280;6169;44.158;22.788;2022-12-18T15:47:51;102933.25;;;4.85;46.19
12213;BME280;6169;44.158;22.788;2022-12-18T15:52:55;102949.59;;;4.63;46.91
12213;BME280;6169;44.158;22.788;2022-12-18T15:58:00;102942.59;;;4.91;46.32
12213;BME280;6169;44.158;22.788;2022-12-18T16:03:03;102956.72;;;4.73;46.61
12213;BME280;6169;44.158;22.788;2022-12-18T16:08:05;102923.25;;;4.57;46.59
12213;BME280;6169;44.158;22.788;2022-12-18T16:13:10;102974.63;;;4.94;46.93
12213;BME280;6169;44.158;22.788;2022-12-18T16:18:13;102979.03;;;4.64;47.01
12213;BME280;6169;44.158;22.788;2022-12-18T16:23:16;102997.44;;;4.59;47.42
12213;BME280;6169;44.158;22.788;2022-12-18T16:28:19;103001.47;;;4.74;47.14
12213;BME280;6169;44.158;22.788;2022-12-18T16:33:21;103014.91;;;5.05;45.84
12213;BME280;6169;44.158;22.788;2022-12-18T16:38:24;103014.25;;;4.82;46.23
12213;BME280;6169;44.158;22.788;2022-12-18T16:43:27;103030.72;;;5.29;45.25
12213;BME280;6169;44.158;22.788;2022-12-18T16:48:29;103024.81;;;5.05;45.51
12213;BME280;6169;44.158;22.788;2022-12-18T16:53:32;103033.00;;;5.43;45.67
12213;BME280;6169;44.158;22.788;2022-12-18T16:58:36;103035.03;;;5.80;45.62
12213;BME280;6169;44.158;22.788;2022-12-18T17:03:38;103032.03;;;5.74;45.26
12213;BME280;6169;44.158;22.788;2022-12-18T17:08:40;103046.09;;;5.17;46.21
12213;BME280;6169;44.158;22.788;2022-12-18T17:13:44;103046.88;;;5.29;46.27
12213;BME280;6169;44.158;22.788;2022-12-18T17:18:46;103045.91;;;5.59;46.08
12213;BME280;6169;44.158;22.788;2022-12-18T17:23:49;103058.44;;;5.80;46.03
12213;BME280;6169;44.158;22.788;2022-12-18T17:28:55;103071.16;;;5.68;46.42
12213;BME280;6169;44.158;22.788;2022-12-18T17:33:57;103056.72;;;5.79;46.08
12213;BME280;6169;44.158;22.788;2022-12-18T17:39:01;103076.00;;;5.64;46.85
12213;BME280;6169;44.158;22.788;2022-12-18T17:44:04;103079.16;;;6.28;44.80
12213;BME280;6169;44.158;22.788;2022-12-18T17:49:07;103074.72;;;5.88;45.83
12213;BME280;6169;44.158;22.788;2022-12-18T17:54:10;103067.53;;;5.29;47.04
12213;BME280;6169;44.158;22.788;2022-12-18T17:59:13;103031.88;;;4.96;46.77
12213;BME280;6169;44.158;22.788;2022-12-18T18:04:16;103082.13;;;6.05;44.38
12213;BME280;6169;44.158;22.788;2022-12-18T18:09:18;103094.88;;;6.13;44.07
12213;BME280;6169;44.158;22.788;2022-12-18T18:14:21;103091.75;;;5.98;44.61
12213;BME280;6169;44.158;22.788;2022-12-18T18:19:24;103105.53;;;6.05;44.84
12213;BME280;6169;44.158;22.788;2022-12-18T18:24:26;103120.56;;;5.88;45.95
12213;BME280;6169;44.158;22.788;2022-12-18T18:29:30;103124.97;;;5.89;45.52
12213;BME280;6169;44.158;22.788;2022-12-18T18:34:33;103128.50;;;5.99;45.60
12213;BME280;6169;44.158;22.788;2022-12-18T18:39:35;103134.88;;;5.69;46.01
12213;BME280;6169;44.158;22.788;2022-12-18T18:44:39;103147.84;;;6.24;45.33
12213;BME280;6169;44.158;22.788;2022-12-18T18:49:41;103154.69;;;6.38;44.61
12213;BME280;6169;44.158;22.788;2022-12-18T18:54:46;103168.88;;;6.49;44.23
12213;BME280;6169;44.158;22.788;2022-12-18T18:59:50;103179.22;;;6.25;45.57
12213;BME280;6169;44.158;22.788;2022-12-18T19:04:52;103183.38;;;6.29;45.16
12213;BME280;6169;44.158;22.788;2022-12-18T19:09:55;103199.84;;;6.45;45.18
12213;BME280;6169;44.158;22.788;2022-12-18T19:14:59;103206.38;;;6.43;45.70
12213;BME280;6169;44.158;22.788;2022-12-18T19:20:01;103205.38;;;6.34;46.18
12213;BME280;6169;44.158;22.788;2022-12-18T19:25:04;103204.09;;;5.78;46.67
12213;BME280;6169;44.158;22.788;2022-12-18T19:30:10;103206.56;;;6.01;47.13
12213;BME280;6169;44.158;22.788;2022-12-18T19:35:12;103225.13;;;5.54;47.77
12213;BME280;6169;44.158;22.788;2022-12-18T19:40:14;103231.41;;;6.04;46.75
12213;BME280;6169;44.158;22.788;2022-12-18T19:45:18;103228.44;;;5.98;46.46
12213;BME280;6169;44.158;22.788;2022-12-18T19:50:20;103231.78;;;5.80;47.66
12213;BME280;6169;44.158;22.788;2022-12-18T19:55:22;103222.19;;;6.07;46.16
12213;BME280;6169;44.158;22.788;2022-12-18T20:00:26;103230.84;;;5.91;47.08
12213;BME280;6169;44.158;22.788;2022-12-18T20:05:29;103222.69;;;5.72;46.89
12213;BME280;6169;44.158;22.788;2022-12-18T20:10:31;103231.25;;;5.96;46.42
12213;BME280;6169;44.158;22.788;2022-12-18T20:15:35;103238.81;;;6.12;45.70
12213;BME280;6169;44.158;22.788;2022-12-18T20:20:37;103237.91;;;6.52;44.30
12213;BME280;6169;44.158;22.788;2022-12-18T20:25:40;103247.19;;;6.19;45.28
12213;BME280;6169;44.158;22.788;2022-12-18T20:30:44;103238.97;;;6.20;45.42
12213;BME280;6169;44.158;22.788;2022-12-18T20:35:46;103255.56;;;6.06;45.68
12213;BME280;6169;44.158;22.788;2022-12-18T20:40:48;103260.28;;;6.14;45.69
12213;BME280;6169;44.158;22.788;2022-12-18T20:45:59;103259.44;;;5.82;47.21
12213;BME280;6169;44.158;22.788;2022-12-18T20:51:03;103256.44;;;5.76;47.00
12213;BME280;6169;44.158;22.788;2022-12-18T20:56:07;103264.22;;;6.09;46.88
12213;BME280;6169;44.158;22.788;2022-12-18T21:01:13;103271.84;;;6.04;46.22
12213;BME280;6169;44.158;22.788;2022-12-18T21:06:17;103276.56;;;6.02;46.55
12213;BME280;6169;44.158;22.788;2022-12-18T21:11:28;103276.13;;;5.67;47.75
12213;BME280;6169;44.158;22.788;2022-12-18T21:16:54;103268.59;;;6.01;47.01
12213;BME280;6169;44.158;22.788;2022-12-18T21:21:57;103264.94;;;6.12;46.64
12213;BME280;6169;44.158;22.788;2022-12-18T21:26:59;103254.22;;;6.41;45.76
12213;BME280;6169;44.158;22.788;2022-12-18T21:32:04;103261.75;;;6.37;45.72
12213;BME280;6169;44.158;22.788;2022-12-18T21:37:08;103257.13;;;6.08;46.08
12213;BME280;6169;44.158;22.788;2022-12-18T21:42:11;103272.75;;;6.15;46.50
12213;BME280;6169;44.158;22.788;2022-12-18T21:47:32;103265.31;;;5.97;46.81
12213;BME280;6169;44.158;22.788;2022-12-18T21:52:34;103265.00;;;5.91;46.90
12213;BME280;6169;44.158;22.788;2022-12-18T21:57:37;103259.34;;;6.34;46.19
12213;BME280;6169;44.158;22.788;2022-12-18T22:02:40;103268.28;;;6.44;45.85
12213;BME280;6169;44.158;22.788;2022-12-18T22:07:43;103259.91;;;6.38;45.57
12213;BME280;6169;44.158;22.788;2022-12-18T22:12:45;103257.63;;;6.33;46.38
12213;BME280;6169;44.158;22.788;2022-12-18T22:17:49;103265.50;;;6.05;46.86
12213;BME280;6169;44.158;22.788;2022-12-18T22:22:51;103268.41;;;5.83;47.96
12213;BME280;6169;44.158;22.788;2022-12-18T22:27:53;103277.28;;;5.74;47.14
12213;BME280;6169;44.158;22.788;2022-12-18T22:33:15;103288.25;;;6.22;45.91
12213;BME280;6169;44.158;22.788;2022-12-18T22:38:17;103298.56;;;5.77;46.59
12213;BME280;6169;44.158;22.788;2022-12-18T22:43:19;103294.13;;;5.66;46.52
12213;BME280;6169;44.158;22.788;2022-12-18T22:48:23;103288.31;;;5.40;47.78
12213;BME280;6169;44.158;22.788;2022-12-18T22:53:25;103294.72;;;5.70;47.34
12213;BME280;6169;44.158;22.788;2022-12-18T22:58:27;103285.78;;;5.69;47.30
12213;BME280;6169;44.158;22.788;2022-12-18T23:03:32;103279.63;;;5.57;46.88
12213;BME280;6169;44.158;22.788;2022-12-18T23:08:34;103289.91;;;5.73;46.82
12213;BME280;6169;44.158;22.788;2022-12-18T23:13:37;103294.16;;;6.06;46.44
12213;BME280;6169;44.158;22.788;2022-12-18T23:18:42;103297.41;;;6.00;46.33
12213;BME280;6169;44.158;22.788;2022-12-18T23:23:44;103298.53;;;5.67;47.60
12213;BME280;6169;44.158;22.788;2022-12-18T23:28:47;103283.75;;;5.61;47.59
12213;BME280;6169;44.158;22.788;2022-12-18T23:33:52;103305.69;;;5.57;48.33
12213;BME280;6169;44.158;22.788;2022-12-18T23:38:56;103306.97;;;5.53;48.64
12213;BME280;6169;44.158;22.788;2022-12-18T23:43:59;103315.97;;;5.42;48.23
12213;BME280;6169;44.158;22.788;2022-12-18T23:49:04;103324.06;;;5.42;48.71
12213;BME280;6169;44.158;22.788;2022-12-18T23:54:07;103323.53;;;5.79;47.78
12213;BME280;6169;44.158;22.788;2022-12-18T23:59:09;103321.00;;;6.08;47.10
